Time;durP1;ratioP1;P1;durP2;ratioP2;P2;SDS_P1;SDS_P2;PMS_P1;PMS_P2;Temp;Humidity;BMP_temperature;BMP_pressure;BME280_temperature;BME280_humidity;BME280_pressure;Samples;Min_cycle;Max_cycle;Signal;HPM_P1;HPM_P2
2022/04/04 00:01:16;;;;;;;;;;;21.10;33.00;;;;;;466036;256;1157;-39
2022/04/04 00:03:18;;;;;;;;;;;21.10;33.00;;;;;;466121;256;1066;-39
2022/04/04 00:05:21;;;;;;;;;;;21.10;33.00;;;;;;466133;256;2144;-39
2022/04/04 00:07:20;;;;;;;;;;;21.10;33.00;;;;;;465513;256;2055;-39
2022/04/04 00:09:22;;;;;;;;;;;21.10;33.00;;;;;;466135;256;938;-39
2022/04/04 00:11:23;;;;;;;;;;;21.10;33.00;;;;;;466094;256;1209;-39
2022/04/04 00:13:25;;;;;;;;;;;21.10;33.00;;;;;;465689;256;1024;-39
2022/04/04 00:15:26;;;;;;;;;;;21.10;33.00;;;;;;465691;256;1533;-39
2022/04/04 00:17:27;;;;;;;;;;;21.10;33.00;;;;;;466035;256;1116;-39
2022/04/04 00:19:28;;;;;;;;;;;21.10;33.00;;;;;;465627;256;1113;-39
2022/04/04 00:21:30;;;;;;;;;;;21.10;33.00;;;;;;466070;256;1079;-39
2022/04/04 00:23:31;;;;;;;;;;;21.10;33.00;;;;;;466103;256;1000;-39
2022/04/04 00:25:32;;;;;;;;;;;21.10;33.10;;;;;;466081;256;2197;-39
2022/04/04 00:27:34;;;;;;;;;;;21.10;33.10;;;;;;465767;256;1014;-39
2022/04/04 00:29:35;;;;;;;;;;;21.10;33.00;;;;;;465933;256;1279;-39
2022/04/04 00:31:37;;;;;;;;;;;21.10;33.10;;;;;;465966;256;1239;-39
2022/04/04 00:33:38;;;;;;;;;;;21.10;33.00;;;;;;465683;256;1619;-39
2022/04/04 00:35:39;;;;;;;;;;;21.10;33.00;;;;;;466093;256;1037;-39
2022/04/04 00:37:40;;;;;;;;;;;21.10;33.00;;;;;;465844;256;1119;-39
2022/04/04 00:39:42;;;;;;;;;;;21.10;33.00;;;;;;465953;256;1029;-39
2022/04/04 00:41:43;;;;;;;;;;;21.10;33.00;;;;;;465988;256;1242;-39
2022/04/04 00:43:44;;;;;;;;;;;21.10;33.10;;;;;;466090;256;1073;-39
2022/04/04 00:45:46;;;;;;;;;;;21.00;33.10;;;;;;465661;256;2205;-39
2022/04/04 00:47:47;;;;;;;;;;;21.00;33.10;;;;;;466085;256;1197;-39
2022/04/04 00:49:49;;;;;;;;;;;21.10;33.10;;;;;;466108;256;1087;-39
2022/04/04 00:51:50;;;;;;;;;;;21.10;33.00;;;;;;465639;256;1412;-39
2022/04/04 00:53:51;;;;;;;;;;;21.10;33.00;;;;;;466106;256;1032;-39
2022/04/04 00:55:53;;;;;;;;;;;21.00;33.00;;;;;;465994;256;1237;-39
2022/04/04 00:57:54;;;;;;;;;;;21.10;33.10;;;;;;465620;256;1284;-39
2022/04/04 00:59:55;;;;;;;;;;;21.00;33.10;;;;;;465762;256;1172;-39
2022/04/04 01:01:56;;;;;;;;;;;21.10;33.10;;;;;;466039;256;1412;-39
2022/04/04 01:03:58;;;;;;;;;;;21.10;33.10;;;;;;465693;256;1058;-39
2022/04/04 01:05:59;;;;;;;;;;;21.10;33.10;;;;;;466096;256;2126;-39
2022/04/04 01:08:00;;;;;;;;;;;21.00;33.10;;;;;;466096;256;1052;-39
2022/04/04 01:10:02;;;;;;;;;;;21.10;33.00;;;;;;465697;256;1104;-39
2022/04/04 01:12:03;;;;;;;;;;;21.10;33.10;;;;;;466073;256;1325;-39
2022/04/04 01:14:04;;;;;;;;;;;21.10;33.10;;;;;;465745;256;1206;-39
2022/04/04 01:16:06;;;;;;;;;;;21.10;33.00;;;;;;465770;256;1443;-39
2022/04/04 01:18:07;;;;;;;;;;;21.10;33.00;;;;;;465941;256;1259;-39
2022/04/04 01:20:09;;;;;;;;;;;21.10;33.00;;;;;;465984;256;1098;-39
2022/04/04 01:22:10;;;;;;;;;;;21.10;33.10;;;;;;465539;256;1516;-39
2022/04/04 01:24:11;;;;;;;;;;;21.00;33.10;;;;;;466062;256;1101;-39
2022/04/04 01:26:13;;;;;;;;;;;21.10;33.00;;;;;;465987;256;2135;-39
2022/04/04 01:28:14;;;;;;;;;;;21.00;33.00;;;;;;466074;255;1401;-39
2022/04/04 01:30:15;;;;;;;;;;;21.10;33.00;;;;;;466026;256;1297;-39
2022/04/04 01:32:16;;;;;;;;;;;21.10;33.10;;;;;;465661;256;1382;-39
2022/04/04 01:34:18;;;;;;;;;;;21.10;33.00;;;;;;466094;256;992;-39
2022/04/04 01:36:19;;;;;;;;;;;21.00;33.00;;;;;;466066;256;1114;-39
2022/04/04 01:38:20;;;;;;;;;;;21.00;33.00;;;;;;465705;256;1090;-39
2022/04/04 01:40:21;;;;;;;;;;;21.00;33.10;;;;;;465704;256;1061;-39
2022/04/04 01:42:23;;;;;;;;;;;21.00;33.00;;;;;;466068;256;1018;-39
2022/04/04 01:44:24;;;;;;;;;;;21.10;33.10;;;;;;466132;256;1037;-39
2022/04/04 01:46:26;;;;;;;;;;;21.10;33.10;;;;;;465766;256;2155;-39
2022/04/04 01:48:27;;;;;;;;;;;21.10;33.00;;;;;;465894;255;1810;-39
2022/04/04 01:50:28;;;;;;;;;;;21.00;33.00;;;;;;465708;256;1082;-39
2022/04/04 01:52:29;;;;;;;;;;;21.10;33.00;;;;;;465651;256;1152;-39
2022/04/04 01:54:31;;;;;;;;;;;21.00;33.00;;;;;;466105;256;1071;-39
2022/04/04 01:56:32;;;;;;;;;;;21.00;33.00;;;;;;466084;256;1064;-39
2022/04/04 01:58:33;;;;;;;;;;;21.00;33.00;;;;;;466066;256;1225;-39
2022/04/04 02:00:35;;;;;;;;;;;21.00;33.00;;;;;;466042;251;1669;-39
2022/04/04 02:02:36;;;;;;;;;;;21.00;33.00;;;;;;465844;256;1072;-39
2022/04/04 02:04:38;;;;;;;;;;;21.10;33.00;;;;;;466124;256;1059;-39
2022/04/04 02:06:39;;;;;;;;;;;21.10;32.90;;;;;;465680;256;2198;-39
2022/04/04 02:08:41;;;;;;;;;;;21.10;33.10;;;;;;466129;256;1032;-39
2022/04/04 02:10:41;;;;;;;;;;;21.00;33.00;;;;;;466065;256;2288;-39
2022/04/04 02:12:43;;;;;;;;;;;21.00;33.00;;;;;;465735;256;1112;-39
2022/04/04 02:14:44;;;;;;;;;;;21.10;33.00;;;;;;466147;256;1230;-39
2022/04/04 02:16:45;;;;;;;;;;;21.00;33.00;;;;;;465609;256;1271;-39
2022/04/04 02:18:47;;;;;;;;;;;21.00;33.00;;;;;;466131;256;1191;-39
2022/04/04 02:20:48;;;;;;;;;;;21.00;33.00;;;;;;465975;256;1085;-39
2022/04/04 02:22:50;;;;;;;;;;;21.00;33.00;;;;;;465695;256;1162;-39
2022/04/04 02:24:51;;;;;;;;;;;21.00;33.00;;;;;;466123;256;1835;-39
2022/04/04 02:26:52;;;;;;;;;;;21.10;33.10;;;;;;466079;256;2131;-39
2022/04/04 02:28:54;;;;;;;;;;;21.10;33.10;;;;;;465860;256;992;-39
2022/04/04 02:30:55;;;;;;;;;;;21.00;33.00;;;;;;466021;256;1708;-39
2022/04/04 02:32:56;;;;;;;;;;;21.00;33.00;;;;;;465814;256;1117;-39
2022/04/04 02:34:57;;;;;;;;;;;21.00;33.00;;;;;;466106;256;1048;-39
2022/04/04 02:36:59;;;;;;;;;;;21.00;33.00;;;;;;465633;256;1348;-39
2022/04/04 02:39:01;;;;;;;;;;;21.00;33.00;;;;;;465949;256;988;-39
2022/04/04 02:41:01;;;;;;;;;;;21.00;33.00;;;;;;465967;256;2300;-39
2022/04/04 02:43:03;;;;;;;;;;;21.00;33.10;;;;;;465701;256;1150;-39
2022/04/04 02:45:04;;;;;;;;;;;21.00;33.00;;;;;;465711;256;1073;-39
2022/04/04 02:47:05;;;;;;;;;;;21.00;33.00;;;;;;465773;256;2111;-39
2022/04/04 02:49:07;;;;;;;;;;;21.10;33.00;;;;;;466136;256;1014;-39
2022/04/04 02:51:08;;;;;;;;;;;21.00;32.90;;;;;;466071;256;1192;-39
2022/04/04 02:53:09;;;;;;;;;;;21.10;33.00;;;;;;465670;256;1153;-39
2022/04/04 02:57:32;;;;;;;;;;;21.10;33.00;;;;;;451101;256;1631;-39
2022/04/04 02:59:33;;;;;;;;;;;21.00;33.00;;;;;;465975;256;1229;-39
2022/04/04 03:01:35;;;;;;;;;;;21.00;33.00;;;;;;465849;256;1353;-39
2022/04/04 03:03:36;;;;;;;;;;;21.00;33.00;;;;;;466064;256;1553;-39
2022/04/04 03:05:37;;;;;;;;;;;21.10;33.00;;;;;;466065;256;2131;-39
2022/04/04 03:07:38;;;;;;;;;;;21.10;33.00;;;;;;465630;256;1169;-39
2022/04/04 03:09:39;;;;;;;;;;;21.10;33.00;;;;;;465683;256;978;-39
2022/04/04 03:11:41;;;;;;;;;;;21.00;32.90;;;;;;466011;256;1223;-39
2022/04/04 03:13:42;;;;;;;;;;;21.00;33.00;;;;;;466125;256;1087;-39
2022/04/04 03:15:44;;;;;;;;;;;21.10;33.00;;;;;;466012;256;1166;-39
2022/04/04 03:17:45;;;;;;;;;;;21.10;33.00;;;;;;465826;256;1199;-39
2022/04/04 03:19:47;;;;;;;;;;;21.10;33.00;;;;;;466086;256;1036;-39
2022/04/04 03:21:47;;;;;;;;;;;21.00;33.00;;;;;;465516;256;1585;-39
2022/04/04 03:23:49;;;;;;;;;;;21.00;32.90;;;;;;466093;256;1049;-39
2022/04/04 03:25:50;;;;;;;;;;;21.00;33.00;;;;;;465600;256;2205;-39
2022/04/04 03:27:52;;;;;;;;;;;21.10;32.90;;;;;;466081;256;1073;-39
2022/04/04 03:29:53;;;;;;;;;;;21.10;32.90;;;;;;466090;256;2319;-39
2022/04/04 03:31:54;;;;;;;;;;;21.10;32.90;;;;;;465653;256;1369;-39
2022/04/04 03:33:55;;;;;;;;;;;21.10;32.90;;;;;;466101;256;1088;-39
2022/04/04 03:35:58;;;;;;;;;;;21.10;32.90;;;;;;466039;256;1065;-39
2022/04/04 03:37:58;;;;;;;;;;;21.10;32.80;;;;;;466010;255;1984;-39
2022/04/04 03:39:59;;;;;;;;;;;21.10;32.90;;;;;;466072;256;1396;-39
2022/04/04 03:42:01;;;;;;;;;;;21.00;32.90;;;;;;466074;256;1080;-39
2022/04/04 03:44:02;;;;;;;;;;;21.00;32.90;;;;;;465735;256;1319;-39
2022/04/04 03:46:03;;;;;;;;;;;21.00;32.90;;;;;;466016;256;2222;-39
2022/04/04 03:48:05;;;;;;;;;;;21.00;32.90;;;;;;465820;256;1185;-39
2022/04/04 03:50:06;;;;;;;;;;;21.00;32.90;;;;;;466107;256;1082;-39
2022/04/04 03:52:07;;;;;;;;;;;21.00;33.00;;;;;;465811;256;999;-39
2022/04/04 03:54:09;;;;;;;;;;;21.00;33.00;;;;;;465679;256;1222;-39
2022/04/04 03:56:11;;;;;;;;;;;21.00;32.90;;;;;;465644;256;1081;-39
2022/04/04 03:58:11;;;;;;;;;;;21.00;32.90;;;;;;465571;256;2267;-39
2022/04/04 04:00:12;;;;;;;;;;;21.00;32.90;;;;;;466069;256;1383;-39
2022/04/04 04:02:14;;;;;;;;;;;21.10;32.90;;;;;;465501;256;1296;-39
2022/04/04 04:04:15;;;;;;;;;;;21.10;33.00;;;;;;466036;256;1038;-39
2022/04/04 04:06:16;;;;;;;;;;;21.00;32.90;;;;;;465479;256;2194;-39
2022/04/04 04:08:18;;;;;;;;;;;21.00;32.90;;;;;;465659;256;1082;-39
2022/04/04 04:10:19;;;;;;;;;;;21.00;33.00;;;;;;465676;256;1180;-39
2022/04/04 04:12:21;;;;;;;;;;;21.00;32.90;;;;;;465983;256;1291;-39
2022/04/04 04:14:22;;;;;;;;;;;21.10;33.00;;;;;;466108;256;1114;-39
2022/04/04 04:16:23;;;;;;;;;;;21.00;32.90;;;;;;465933;256;1397;-39
2022/04/04 04:18:25;;;;;;;;;;;21.00;32.90;;;;;;465812;256;1238;-39
2022/04/04 04:20:31;;;;;;;;;;;21.00;32.90;;;;;;466051;256;1100;-39
2022/04/04 04:22:28;;;;;;;;;;;21.00;32.90;;;;;;465271;255;2273;-39
2022/04/04 04:24:29;;;;;;;;;;;21.00;32.90;;;;;;465996;256;1105;-39
2022/04/04 04:26:30;;;;;;;;;;;21.00;32.90;;;;;;465507;256;2202;-39
2022/04/04 04:28:32;;;;;;;;;;;21.00;32.90;;;;;;465795;256;1089;-39
2022/04/04 04:30:33;;;;;;;;;;;21.00;32.90;;;;;;465978;256;1098;-39
2022/04/04 04:32:34;;;;;;;;;;;21.00;32.90;;;;;;465888;251;1284;-39
2022/04/04 04:34:36;;;;;;;;;;;21.00;33.00;;;;;;465802;256;1098;-39
2022/04/04 04:36:39;;;;;;;;;;;21.00;33.00;;;;;;465500;256;1117;-39
2022/04/04 04:38:39;;;;;;;;;;;21.00;33.00;;;;;;465657;255;1963;-39
2022/04/04 04:40:40;;;;;;;;;;;21.00;33.00;;;;;;465576;256;1064;-39
2022/04/04 04:42:42;;;;;;;;;;;21.00;33.00;;;;;;465888;256;1161;-39
2022/04/04 04:44:43;;;;;;;;;;;21.00;33.00;;;;;;465974;256;1095;-39
2022/04/04 04:46:44;;;;;;;;;;;21.00;32.90;;;;;;465902;256;2139;-39
2022/04/04 04:48:46;;;;;;;;;;;21.00;32.90;;;;;;465511;256;1234;-39
2022/04/04 04:50:48;;;;;;;;;;;21.00;32.90;;;;;;465827;256;1245;-39
2022/04/04 04:52:49;;;;;;;;;;;21.00;32.90;;;;;;465664;256;1109;-39
2022/04/04 04:54:50;;;;;;;;;;;21.00;32.90;;;;;;465389;256;1094;-39
2022/04/04 04:56:52;;;;;;;;;;;21.00;33.00;;;;;;465443;256;1136;-39
2022/04/04 04:58:53;;;;;;;;;;;21.00;33.00;;;;;;465489;256;1042;-39
2022/04/04 05:00:54;;;;;;;;;;;21.00;33.00;;;;;;465765;256;1451;-39
2022/04/04 05:05:16;;;;;;;;;;;21.00;32.90;;;;;;465449;256;1140;-39
2022/04/04 05:07:18;;;;;;;;;;;20.90;33.00;;;;;;465436;256;2139;-39
2022/04/04 05:09:19;;;;;;;;;;;21.00;33.00;;;;;;465419;256;1090;-39
2022/04/04 05:11:20;;;;;;;;;;;21.00;33.00;;;;;;465652;256;1358;-39
2022/04/04 05:13:22;;;;;;;;;;;21.00;33.00;;;;;;465875;256;1090;-39
2022/04/04 05:15:23;;;;;;;;;;;21.00;32.90;;;;;;465399;256;1093;-39
2022/04/04 05:17:24;;;;;;;;;;;21.00;32.90;;;;;;465738;256;1447;-39
2022/04/04 05:19:26;;;;;;;;;;;21.00;33.00;;;;;;465395;256;1186;-39
2022/04/04 05:21:28;;;;;;;;;;;21.00;33.00;;;;;;465280;247;1255;-39
2022/04/04 05:23:29;;;;;;;;;;;21.00;32.90;;;;;;465336;256;2485;-39
2022/04/04 05:25:30;;;;;;;;;;;21.00;32.90;;;;;;465577;256;1060;-39
2022/04/04 05:27:31;;;;;;;;;;;21.00;32.90;;;;;;465354;256;2202;-39
2022/04/04 05:29:32;;;;;;;;;;;21.00;32.90;;;;;;465356;256;1026;-39
2022/04/04 05:31:34;;;;;;;;;;;21.00;32.90;;;;;;465260;256;1432;-39
2022/04/04 05:33:36;;;;;;;;;;;21.00;32.90;;;;;;465571;256;1132;-39
2022/04/04 05:35:37;;;;;;;;;;;21.00;33.00;;;;;;465679;256;1187;-39
2022/04/04 05:37:38;;;;;;;;;;;21.00;33.00;;;;;;465259;256;1299;-39
2022/04/04 05:39:39;;;;;;;;;;;21.00;33.00;;;;;;465231;256;1111;-39
2022/04/04 05:41:41;;;;;;;;;;;20.90;33.10;;;;;;465560;256;1340;-39
2022/04/04 05:43:43;;;;;;;;;;;20.90;33.00;;;;;;465347;256;1085;-39
2022/04/04 05:45:43;;;;;;;;;;;20.90;33.00;;;;;;465572;256;2399;-39
2022/04/04 05:47:45;;;;;;;;;;;20.90;33.00;;;;;;465153;256;2189;-39
2022/04/04 05:49:46;;;;;;;;;;;20.90;33.00;;;;;;465340;256;1479;-39
2022/04/04 05:51:48;;;;;;;;;;;20.90;33.00;;;;;;465426;256;1191;-39
2022/04/04 05:53:49;;;;;;;;;;;21.00;32.90;;;;;;465621;256;2235;-39
2022/04/04 05:55:50;;;;;;;;;;;21.00;33.00;;;;;;465283;256;1055;-39
2022/04/04 05:57:51;;;;;;;;;;;21.00;33.00;;;;;;465337;256;1113;-39
2022/04/04 05:59:53;;;;;;;;;;;21.00;32.90;;;;;;465271;256;1223;-39
2022/04/04 06:01:54;;;;;;;;;;;20.90;33.00;;;;;;465345;256;1184;-39
2022/04/04 06:03:57;;;;;;;;;;;20.90;33.00;;;;;;465122;256;1189;-39
2022/04/04 06:05:57;;;;;;;;;;;20.90;33.00;;;;;;465145;255;2234;-39
2022/04/04 06:07:58;;;;;;;;;;;20.90;33.00;;;;;;465143;256;2130;-39
2022/04/04 06:09:59;;;;;;;;;;;20.90;33.00;;;;;;465266;256;1214;-39
2022/04/04 06:12:00;;;;;;;;;;;20.90;33.00;;;;;;465097;256;1084;-39
2022/04/04 06:14:02;;;;;;;;;;;21.00;33.00;;;;;;465185;256;1056;-39
2022/04/04 06:16:03;;;;;;;;;;;21.00;33.00;;;;;;465236;256;1126;-39
2022/04/04 06:18:04;;;;;;;;;;;21.00;32.90;;;;;;465302;256;1083;-39
2022/04/04 06:20:06;;;;;;;;;;;21.00;32.90;;;;;;465104;256;1237;-39
2022/04/04 06:22:07;;;;;;;;;;;21.00;32.90;;;;;;465088;256;1204;-39
2022/04/04 06:24:08;;;;;;;;;;;21.00;32.90;;;;;;465203;256;1133;-39
2022/04/04 06:26:12;;;;;;;;;;;21.00;32.90;;;;;;465033;256;1515;-39
2022/04/04 06:28:12;;;;;;;;;;;21.00;32.90;;;;;;465171;255;2233;-39
2022/04/04 06:30:12;;;;;;;;;;;21.00;32.90;;;;;;465201;256;2633;-39
2022/04/04 06:32:14;;;;;;;;;;;20.90;32.80;;;;;;465105;256;1188;-39
2022/04/04 06:34:15;;;;;;;;;;;20.90;32.80;;;;;;464931;256;1220;-39
2022/04/04 06:36:16;;;;;;;;;;;20.90;32.80;;;;;;464930;256;1333;-39
2022/04/04 06:38:18;;;;;;;;;;;21.00;32.80;;;;;;464932;256;1301;-39
2022/04/04 06:40:21;;;;;;;;;;;21.00;32.70;;;;;;465049;256;1241;-39
2022/04/04 06:42:21;;;;;;;;;;;20.90;32.70;;;;;;464955;256;1997;-39
2022/04/04 06:44:23;;;;;;;;;;;21.00;32.80;;;;;;465209;256;1159;-39
2022/04/04 06:46:24;;;;;;;;;;;21.00;32.70;;;;;;465050;255;2365;-39
2022/04/04 06:48:25;;;;;;;;;;;21.00;32.70;;;;;;465164;256;2187;-39
2022/04/04 06:50:26;;;;;;;;;;;21.00;32.60;;;;;;464823;256;1216;-39
2022/04/04 06:52:27;;;;;;;;;;;21.10;32.60;;;;;;464852;256;1284;-39
2022/04/04 06:54:29;;;;;;;;;;;21.00;32.60;;;;;;465018;256;1129;-39
2022/04/04 06:56:31;;;;;;;;;;;21.00;32.60;;;;;;464902;256;1131;-39
2022/04/04 06:58:32;;;;;;;;;;;21.00;32.60;;;;;;464995;256;2211;-39
2022/04/04 07:00:34;;;;;;;;;;;21.00;32.50;;;;;;464959;256;1141;-39
2022/04/04 07:02:34;;;;;;;;;;;21.00;32.50;;;;;;464882;255;1292;-39
2022/04/04 07:04:37;;;;;;;;;;;21.00;32.60;;;;;;465118;256;1338;-39
2022/04/04 07:06:38;;;;;;;;;;;20.90;32.60;;;;;;464990;256;2509;-39
2022/04/04 07:08:39;;;;;;;;;;;20.90;32.60;;;;;;464830;256;2131;-39
2022/04/04 07:10:40;;;;;;;;;;;21.00;32.50;;;;;;464790;256;1159;-39
2022/04/04 07:12:42;;;;;;;;;;;21.00;32.40;;;;;;464870;256;1106;-39
2022/04/04 07:14:44;;;;;;;;;;;21.00;32.50;;;;;;464804;256;1097;-39
2022/04/04 07:16:45;;;;;;;;;;;21.00;32.50;;;;;;464622;256;1264;-39
2022/04/04 07:18:48;;;;;;;;;;;21.00;32.50;;;;;;464708;256;1205;-39
2022/04/04 07:20:48;;;;;;;;;;;21.00;32.40;;;;;;464714;255;2069;-39
2022/04/04 07:22:49;;;;;;;;;;;21.00;32.40;;;;;;464758;256;1174;-39
2022/04/04 07:24:50;;;;;;;;;;;21.00;32.40;;;;;;464815;256;1176;-39
2022/04/04 07:26:53;;;;;;;;;;;21.00;32.40;;;;;;464733;256;1298;-39
2022/04/04 07:28:53;;;;;;;;;;;21.10;32.40;;;;;;464553;256;2197;-39
2022/04/04 07:30:55;;;;;;;;;;;21.10;32.30;;;;;;464591;256;1530;-39
2022/04/04 07:32:56;;;;;;;;;;;21.10;32.30;;;;;;464689;256;1147;-39
2022/04/04 07:34:57;;;;;;;;;;;21.10;32.30;;;;;;464666;256;1256;-39
2022/04/04 07:36:59;;;;;;;;;;;21.00;32.30;;;;;;464739;256;1370;-39
2022/04/04 07:39:00;;;;;;;;;;;21.10;32.40;;;;;;464953;256;1196;-39
2022/04/04 07:41:01;;;;;;;;;;;21.00;32.30;;;;;;464833;256;1294;-39
2022/04/04 07:43:03;;;;;;;;;;;21.10;32.30;;;;;;464779;256;1222;-39
2022/04/04 07:45:04;;;;;;;;;;;21.00;32.30;;;;;;464767;256;1225;-39
2022/04/04 07:47:05;;;;;;;;;;;21.00;32.30;;;;;;464628;256;1232;-39
2022/04/04 07:49:06;;;;;;;;;;;21.00;32.30;;;;;;464807;256;2205;-39
2022/04/04 07:51:08;;;;;;;;;;;21.00;32.30;;;;;;464785;256;1270;-39
2022/04/04 07:53:09;;;;;;;;;;;21.00;32.30;;;;;;464773;256;1086;-39
2022/04/04 07:55:10;;;;;;;;;;;21.00;32.30;;;;;;464756;256;1125;-39
2022/04/04 07:57:12;;;;;;;;;;;21.00;32.30;;;;;;464804;256;1330;-39
2022/04/04 07:59:13;;;;;;;;;;;21.10;32.30;;;;;;464700;256;1139;-39
2022/04/04 08:01:14;;;;;;;;;;;21.10;32.20;;;;;;464602;256;1343;-39
2022/04/04 08:03:16;;;;;;;;;;;21.10;32.20;;;;;;464839;256;1062;-39
2022/04/04 08:05:19;;;;;;;;;;;21.00;32.20;;;;;;464945;256;1187;-39
2022/04/04 08:07:19;;;;;;;;;;;21.10;32.20;;;;;;464765;256;2347;-39
2022/04/04 08:09:20;;;;;;;;;;;21.10;32.20;;;;;;464742;255;2478;-39
2022/04/04 08:11:21;;;;;;;;;;;21.10;32.20;;;;;;464641;256;1198;-39
2022/04/04 08:13:23;;;;;;;;;;;21.00;32.20;;;;;;464849;256;1152;-39
2022/04/04 08:15:24;;;;;;;;;;;21.10;32.20;;;;;;464868;256;1356;-39
2022/04/04 08:17:25;;;;;;;;;;;21.00;32.10;;;;;;464890;256;1597;-39
2022/04/04 08:19:28;;;;;;;;;;;21.10;32.10;;;;;;465083;256;1123;-39
2022/04/04 08:21:28;;;;;;;;;;;21.10;32.10;;;;;;464822;256;2127;-39
2022/04/04 08:23:29;;;;;;;;;;;21.00;32.10;;;;;;465091;256;1096;-39
2022/04/04 08:25:30;;;;;;;;;;;21.10;32.10;;;;;;464814;256;1565;-39
2022/04/04 08:27:32;;;;;;;;;;;21.10;32.10;;;;;;464773;256;2200;-39
2022/04/04 08:29:33;;;;;;;;;;;21.10;32.00;;;;;;464868;256;1236;-39
2022/04/04 08:31:34;;;;;;;;;;;21.10;32.00;;;;;;464772;256;1211;-39
2022/04/04 08:33:37;;;;;;;;;;;21.10;32.00;;;;;;464798;256;1214;-39
2022/04/04 08:35:37;;;;;;;;;;;21.10;32.00;;;;;;464583;256;2155;-39
2022/04/04 08:37:38;;;;;;;;;;;21.10;32.00;;;;;;464884;256;1286;-39
2022/04/04 08:39:40;;;;;;;;;;;21.10;32.00;;;;;;464921;256;1072;-39
2022/04/04 08:41:41;;;;;;;;;;;21.10;32.00;;;;;;464915;256;1258;-39
2022/04/04 08:43:43;;;;;;;;;;;21.10;31.90;;;;;;464826;256;1332;-39
2022/04/04 08:45:44;;;;;;;;;;;21.10;31.90;;;;;;465173;255;1518;-39
2022/04/04 08:47:45;;;;;;;;;;;21.10;31.90;;;;;;465147;256;2217;-39
2022/04/04 08:49:46;;;;;;;;;;;21.10;31.90;;;;;;464843;256;1102;-39
2022/04/04 08:51:48;;;;;;;;;;;21.10;31.90;;;;;;464802;256;1339;-39
2022/04/04 08:53:50;;;;;;;;;;;21.10;32.00;;;;;;464675;256;1121;-39
2022/04/04 08:55:51;;;;;;;;;;;21.10;31.90;;;;;;464917;256;1099;-39
2022/04/04 08:57:52;;;;;;;;;;;21.10;31.90;;;;;;465519;256;1210;-39
2022/04/04 08:59:54;;;;;;;;;;;21.10;31.90;;;;;;464884;256;1166;-39
2022/04/04 09:01:55;;;;;;;;;;;21.10;31.90;;;;;;464641;256;1939;-39
2022/04/04 09:03:56;;;;;;;;;;;21.10;31.90;;;;;;464907;256;1077;-39
2022/04/04 09:05:57;;;;;;;;;;;21.10;31.80;;;;;;465031;256;1243;-39
2022/04/04 09:07:59;;;;;;;;;;;21.10;31.80;;;;;;464906;256;2185;-39
2022/04/04 09:10:01;;;;;;;;;;;21.10;31.90;;;;;;464952;256;1300;-39
2022/04/04 09:12:02;;;;;;;;;;;21.10;31.80;;;;;;465239;256;2763;-39
2022/04/04 09:14:03;;;;;;;;;;;21.10;31.70;;;;;;465420;256;1065;-39
2022/04/04 09:16:05;;;;;;;;;;;21.10;31.70;;;;;;464935;256;1296;-39
2022/04/04 09:18:06;;;;;;;;;;;21.10;31.70;;;;;;464851;256;1237;-39
2022/04/04 09:20:07;;;;;;;;;;;21.10;31.70;;;;;;464860;256;1107;-39
2022/04/04 09:22:09;;;;;;;;;;;21.10;31.70;;;;;;464808;256;1192;-39
2022/04/04 09:24:11;;;;;;;;;;;21.10;31.70;;;;;;464845;256;1251;-39
2022/04/04 09:26:11;;;;;;;;;;;21.10;31.70;;;;;;464744;256;2353;-39
2022/04/04 09:28:13;;;;;;;;;;;21.00;31.70;;;;;;464790;256;2142;-39
2022/04/04 09:30:14;;;;;;;;;;;21.10;31.70;;;;;;464579;256;1230;-39
2022/04/04 09:32:16;;;;;;;;;;;21.10;31.70;;;;;;464564;256;1368;-39
2022/04/04 09:34:17;;;;;;;;;;;21.10;31.70;;;;;;464891;256;1061;-39
2022/04/04 09:36:18;;;;;;;;;;;21.10;31.60;;;;;;464809;256;1209;-39
2022/04/04 09:38:20;;;;;;;;;;;21.10;31.60;;;;;;464823;256;1108;-39
2022/04/04 09:40:21;;;;;;;;;;;21.10;31.60;;;;;;464847;256;1108;-39
2022/04/04 09:42:22;;;;;;;;;;;21.10;31.60;;;;;;464742;256;1202;-39
2022/04/04 09:44:26;;;;;;;;;;;21.10;31.60;;;;;;465097;256;1070;-39
2022/04/04 09:46:27;;;;;;;;;;;21.10;31.60;;;;;;464866;256;1359;-39
2022/04/04 09:48:28;;;;;;;;;;;21.10;31.60;;;;;;464874;256;2193;-39
2022/04/04 09:50:30;;;;;;;;;;;21.10;31.60;;;;;;464813;252;1156;-39
2022/04/04 09:52:31;;;;;;;;;;;21.10;31.60;;;;;;464814;256;1275;-39
2022/04/04 09:54:32;;;;;;;;;;;21.10;31.60;;;;;;464753;256;1107;-39
2022/04/04 09:56:34;;;;;;;;;;;21.10;31.60;;;;;;464610;256;1245;-39
2022/04/04 09:58:38;;;;;;;;;;;21.10;31.50;;;;;;464843;256;1474;-39
2022/04/04 10:00:36;;;;;;;;;;;21.10;31.60;;;;;;464735;255;2289;-39
2022/04/04 10:02:38;;;;;;;;;;;21.10;31.50;;;;;;465074;256;1179;-39
2022/04/04 10:04:39;;;;;;;;;;;21.10;31.50;;;;;;464915;256;1224;-39
2022/04/04 10:06:40;;;;;;;;;;;21.10;31.60;;;;;;464845;256;1608;-39
2022/04/04 10:08:42;;;;;;;;;;;21.10;31.50;;;;;;464942;256;2201;-39
2022/04/04 10:10:43;;;;;;;;;;;21.10;31.50;;;;;;464878;256;1298;-39
2022/04/04 10:12:44;;;;;;;;;;;21.10;31.40;;;;;;465036;256;1401;-39
2022/04/04 10:14:46;;;;;;;;;;;21.10;31.50;;;;;;465039;256;1049;-39
2022/04/04 10:16:47;;;;;;;;;;;21.10;31.40;;;;;;464829;256;1253;-39
2022/04/04 10:18:48;;;;;;;;;;;21.10;31.40;;;;;;464946;256;1206;-39
2022/04/04 10:20:53;;;;;;;;;;;21.10;31.40;;;;;;465027;256;1144;-39
2022/04/04 10:22:51;;;;;;;;;;;21.10;31.40;;;;;;464791;256;1458;-39
2022/04/04 10:24:52;;;;;;;;;;;21.10;31.40;;;;;;464967;256;1148;-39
2022/04/04 10:26:54;;;;;;;;;;;21.20;31.40;;;;;;464786;256;1214;-39
2022/04/04 10:28:55;;;;;;;;;;;21.10;31.30;;;;;;464939;256;2199;-39
2022/04/04 10:30:56;;;;;;;;;;;21.10;31.30;;;;;;464836;256;1198;-39
2022/04/04 10:32:58;;;;;;;;;;;21.10;31.30;;;;;;464820;256;1179;-39
2022/04/04 10:34:59;;;;;;;;;;;21.10;31.40;;;;;;464835;256;1282;-39
2022/04/04 10:37:00;;;;;;;;;;;21.10;31.40;;;;;;464826;256;1368;-39
2022/04/04 10:39:02;;;;;;;;;;;21.10;31.30;;;;;;464924;256;1141;-39
2022/04/04 10:41:05;;;;;;;;;;;21.10;31.30;;;;;;465124;256;1319;-39
2022/04/04 10:43:05;;;;;;;;;;;21.10;31.30;;;;;;464972;256;1583;-39
2022/04/04 10:45:06;;;;;;;;;;;21.10;31.30;;;;;;464872;256;1104;-39
2022/04/04 10:47:07;;;;;;;;;;;21.10;31.30;;;;;;464852;256;1349;-39
2022/04/04 10:49:09;;;;;;;;;;;21.20;31.30;;;;;;464735;256;2198;-39
2022/04/04 10:51:11;;;;;;;;;;;21.10;31.20;;;;;;464667;256;1366;-39
2022/04/04 10:53:12;;;;;;;;;;;21.20;31.30;;;;;;465089;256;2003;-39
2022/04/04 10:55:13;;;;;;;;;;;21.20;31.20;;;;;;464959;256;1235;-39
2022/04/04 10:57:14;;;;;;;;;;;21.10;31.20;;;;;;464915;256;1241;-39
2022/04/04 10:59:16;;;;;;;;;;;21.20;31.20;;;;;;465014;256;1173;-39
2022/04/04 11:01:18;;;;;;;;;;;21.10;31.20;;;;;;465073;256;1155;-39
2022/04/04 11:03:20;;;;;;;;;;;21.10;31.20;;;;;;464897;256;2350;-39
2022/04/04 11:07:41;;;;;;;;;;;21.20;31.20;;;;;;464840;256;1184;-39
2022/04/04 11:09:46;;;;;;;;;;;21.10;31.20;;;;;;464933;256;2206;-39
2022/04/04 11:11:44;;;;;;;;;;;21.10;31.20;;;;;;464386;256;2381;-39
2022/04/04 11:13:45;;;;;;;;;;;21.20;31.10;;;;;;464889;256;1127;-39
2022/04/04 11:15:49;;;;;;;;;;;21.10;31.10;;;;;;464902;256;1078;-39
2022/04/04 11:17:48;;;;;;;;;;;21.20;31.20;;;;;;464772;256;1800;-39
2022/04/04 11:19:49;;;;;;;;;;;21.10;31.10;;;;;;464917;256;1113;-39
2022/04/04 11:21:51;;;;;;;;;;;21.10;31.10;;;;;;464844;256;1212;-39
2022/04/04 11:23:52;;;;;;;;;;;21.10;31.10;;;;;;464885;256;1183;-39
2022/04/04 11:25:53;;;;;;;;;;;21.10;31.10;;;;;;464780;256;1244;-39
2022/04/04 11:27:57;;;;;;;;;;;21.20;31.10;;;;;;465155;256;1073;-39
2022/04/04 11:29:56;;;;;;;;;;;21.10;31.10;;;;;;465080;256;2342;-39
2022/04/04 11:31:57;;;;;;;;;;;21.10;31.10;;;;;;465546;256;1264;-39
2022/04/04 11:33:58;;;;;;;;;;;21.10;31.10;;;;;;465428;256;1078;-39
2022/04/04 11:36:03;;;;;;;;;;;21.10;31.10;;;;;;464789;248;1537;-39
2022/04/04 11:38:02;;;;;;;;;;;21.20;31.00;;;;;;465078;255;1256;-39
2022/04/04 11:40:08;;;;;;;;;;;21.10;31.10;;;;;;464906;256;2228;-39
2022/04/04 11:42:07;;;;;;;;;;;21.20;31.10;;;;;;464400;256;1568;-39
2022/04/04 11:44:09;;;;;;;;;;;21.20;31.00;;;;;;464928;256;1218;-39
2022/04/04 11:46:10;;;;;;;;;;;21.20;31.00;;;;;;464801;256;1557;-39
2022/04/04 11:48:13;;;;;;;;;;;21.20;31.00;;;;;;464799;256;1085;-39
2022/04/04 11:50:12;;;;;;;;;;;21.20;31.00;;;;;;464568;256;2248;-39
2022/04/04 11:52:17;;;;;;;;;;;21.20;30.90;;;;;;464743;256;1200;-39
2022/04/04 11:54:17;;;;;;;;;;;21.20;31.00;;;;;;464872;255;2131;-39
2022/04/04 11:56:21;;;;;;;;;;;21.20;31.00;;;;;;464941;256;1393;-39
2022/04/04 11:58:24;;;;;;;;;;;21.20;31.00;;;;;;464766;256;2009;-39
2022/04/04 12:00:22;;;;;;;;;;;21.10;31.00;;;;;;464639;256;2123;-39
2022/04/04 12:02:25;;;;;;;;;;;21.10;31.00;;;;;;464840;256;1310;-39
2022/04/04 12:04:25;;;;;;;;;;;21.20;30.90;;;;;;464950;255;2072;-39